sensor_id;sensor_type;location;lat;lon;timestamp;P1;durP1;ratioP1;P2;durP2;ratioP2
22230;SDS011;11284;48.086;-1.652;2024-02-16T00:01:34;23.65;;;4.90;;
22230;SDS011;11284;48.086;-1.652;2024-02-16T00:04:01;25.58;;;5.28;;
22230;SDS011;11284;48.086;-1.652;2024-02-16T00:06:27;22.42;;;5.38;;
22230;SDS011;11284;48.086;-1.652;2024-02-16T00:08:53;21.23;;;5.38;;
22230;SDS011;11284;48.086;-1.652;2024-02-16T00:11:19;22.17;;;6.00;;
22230;SDS011;11284;48.086;-1.652;2024-02-16T00:13:45;27.35;;;7.53;;
22230;SDS011;11284;48.086;-1.652;2024-02-16T00:16:11;24.77;;;6.57;;
22230;SDS011;11284;48.086;-1.652;2024-02-16T00:18:37;24.65;;;5.88;;
22230;SDS011;11284;48.086;-1.652;2024-02-16T00:21:03;24.25;;;6.93;;
22230;SDS011;11284;48.086;-1.652;2024-02-16T00:23:30;20.25;;;5.35;;
22230;SDS011;11284;48.086;-1.652;2024-02-16T00:25:58;17.20;;;5.40;;
22230;SDS011;11284;48.086;-1.652;2024-02-16T00:28:24;26.00;;;5.95;;
22230;SDS011;11284;48.086;-1.652;2024-02-16T00:30:50;21.27;;;6.50;;
22230;SDS011;11284;48.086;-1.652;2024-02-16T00:33:16;20.15;;;5.18;;
22230;SDS011;11284;48.086;-1.652;2024-02-16T00:35:43;23.10;;;5.30;;
22230;SDS011;11284;48.086;-1.652;2024-02-16T00:38:12;23.00;;;5.82;;
22230;SDS011;11284;48.086;-1.652;2024-02-16T00:40:38;23.52;;;5.50;;
22230;SDS011;11284;48.086;-1.652;2024-02-16T00:43:08;25.13;;;5.88;;
22230;SDS011;11284;48.086;-1.652;2024-02-16T00:45:34;23.73;;;6.03;;
22230;SDS011;11284;48.086;-1.652;2024-02-16T00:48:00;21.58;;;5.88;;
22230;SDS011;11284;48.086;-1.652;2024-02-16T00:50:27;21.60;;;5.45;;
22230;SDS011;11284;48.086;-1.652;2024-02-16T00:52:53;30.17;;;5.72;;
22230;SDS011;11284;48.086;-1.652;2024-02-16T00:55:19;18.20;;;5.05;;
22230;SDS011;11284;48.086;-1.652;2024-02-16T00:57:45;18.80;;;4.93;;
22230;SDS011;11284;48.086;-1.652;2024-02-16T01:00:11;23.48;;;5.18;;
22230;SDS011;11284;48.086;-1.652;2024-02-16T01:02:37;25.88;;;6.22;;
22230;SDS011;11284;48.086;-1.652;2024-02-16T01:05:04;20.02;;;5.75;;
22230;SDS011;11284;48.086;-1.652;2024-02-16T01:07:30;23.80;;;5.55;;
22230;SDS011;11284;48.086;-1.652;2024-02-16T01:09:58;18.38;;;5.03;;
22230;SDS011;11284;48.086;-1.652;2024-02-16T01:12:25;27.52;;;5.97;;
22230;SDS011;11284;48.086;-1.652;2024-02-16T01:14:51;24.20;;;5.45;;
22230;SDS011;11284;48.086;-1.652;2024-02-16T01:17:17;25.77;;;6.60;;
22230;SDS011;11284;48.086;-1.652;2024-02-16T01:19:43;22.35;;;5.90;;
22230;SDS011;11284;48.086;-1.652;2024-02-16T01:22:09;20.17;;;5.20;;
22230;SDS011;11284;48.086;-1.652;2024-02-16T01:24:35;19.98;;;5.75;;
22230;SDS011;11284;48.086;-1.652;2024-02-16T01:27:01;22.73;;;5.53;;
22230;SDS011;11284;48.086;-1.652;2024-02-16T01:29:27;22.92;;;5.38;;
22230;SDS011;11284;48.086;-1.652;2024-02-16T01:31:53;24.83;;;5.53;;
22230;SDS011;11284;48.086;-1.652;2024-02-16T01:34:19;23.23;;;5.70;;
22230;SDS011;11284;48.086;-1.652;2024-02-16T01:36:46;22.50;;;5.07;;
22230;SDS011;11284;48.086;-1.652;2024-02-16T01:39:12;26.50;;;5.95;;
22230;SDS011;11284;48.086;-1.652;2024-02-16T01:41:38;25.98;;;5.40;;
22230;SDS011;11284;48.086;-1.652;2024-02-16T01:44:04;19.75;;;5.35;;
22230;SDS011;11284;48.086;-1.652;2024-02-16T01:46:31;22.98;;;5.40;;
22230;SDS011;11284;48.086;-1.652;2024-02-16T01:48:57;21.42;;;5.72;;
22230;SDS011;11284;48.086;-1.652;2024-02-16T01:51:23;21.13;;;5.35;;
22230;SDS011;11284;48.086;-1.652;2024-02-16T01:53:51;23.33;;;5.32;;
22230;SDS011;11284;48.086;-1.652;2024-02-16T01:56:17;22.23;;;5.25;;
22230;SDS011;11284;48.086;-1.652;2024-02-16T01:58:45;22.45;;;6.13;;
22230;SDS011;11284;48.086;-1.652;2024-02-16T02:01:11;23.27;;;5.53;;
22230;SDS011;11284;48.086;-1.652;2024-02-16T02:03:37;22.85;;;5.40;;
22230;SDS011;11284;48.086;-1.652;2024-02-16T02:06:03;27.00;;;5.90;;
22230;SDS011;11284;48.086;-1.652;2024-02-16T02:08:29;26.50;;;5.93;;
22230;SDS011;11284;48.086;-1.652;2024-02-16T02:10:55;23.35;;;5.50;;
22230;SDS011;11284;48.086;-1.652;2024-02-16T02:13:21;19.00;;;5.93;;
22230;SDS011;11284;48.086;-1.652;2024-02-16T02:15:47;19.17;;;5.32;;
22230;SDS011;11284;48.086;-1.652;2024-02-16T02:18:13;28.80;;;5.90;;
22230;SDS011;11284;48.086;-1.652;2024-02-16T02:20:39;22.67;;;5.95;;
22230;SDS011;11284;48.086;-1.652;2024-02-16T02:23:05;21.60;;;6.00;;
22230;SDS011;11284;48.086;-1.652;2024-02-16T02:25:31;22.05;;;6.22;;
22230;SDS011;11284;48.086;-1.652;2024-02-16T02:27:58;25.50;;;5.78;;
22230;SDS011;11284;48.086;-1.652;2024-02-16T02:30:24;22.48;;;5.15;;
22230;SDS011;11284;48.086;-1.652;2024-02-16T02:32:50;21.70;;;5.78;;
22230;SDS011;11284;48.086;-1.652;2024-02-16T02:35:16;23.10;;;6.18;;
22230;SDS011;11284;48.086;-1.652;2024-02-16T02:37:42;19.17;;;5.97;;
22230;SDS011;11284;48.086;-1.652;2024-02-16T02:40:09;16.13;;;6.15;;
22230;SDS011;11284;48.086;-1.652;2024-02-16T02:42:35;15.27;;;5.80;;
22230;SDS011;11284;48.086;-1.652;2024-02-16T02:45:01;17.30;;;5.93;;
22230;SDS011;11284;48.086;-1.652;2024-02-16T02:47:27;11.60;;;5.65;;
22230;SDS011;11284;48.086;-1.652;2024-02-16T02:49:53;16.15;;;6.25;;
22230;SDS011;11284;48.086;-1.652;2024-02-16T02:52:20;18.92;;;6.47;;
22230;SDS011;11284;48.086;-1.652;2024-02-16T02:54:46;17.63;;;6.28;;
22230;SDS011;11284;48.086;-1.652;2024-02-16T02:57:12;20.23;;;6.57;;
22230;SDS011;11284;48.086;-1.652;2024-02-16T02:59:38;14.63;;;5.90;;
22230;SDS011;11284;48.086;-1.652;2024-02-16T03:02:04;13.48;;;5.88;;
22230;SDS011;11284;48.086;-1.652;2024-02-16T03:04:30;15.13;;;5.18;;
22230;SDS011;11284;48.086;-1.652;2024-02-16T03:06:56;14.50;;;5.72;;
22230;SDS011;11284;48.086;-1.652;2024-02-16T03:09:22;9.48;;;4.25;;
22230;SDS011;11284;48.086;-1.652;2024-02-16T03:11:48;8.75;;;3.75;;
22230;SDS011;11284;48.086;-1.652;2024-02-16T03:14:15;6.70;;;3.90;;
22230;SDS011;11284;48.086;-1.652;2024-02-16T03:16:41;6.32;;;2.85;;
22230;SDS011;11284;48.086;-1.652;2024-02-16T03:19:08;7.13;;;2.70;;
22230;SDS011;11284;48.086;-1.652;2024-02-16T03:21:34;7.80;;;2.75;;
22230;SDS011;11284;48.086;-1.652;2024-02-16T03:24:01;5.63;;;1.90;;
22230;SDS011;11284;48.086;-1.652;2024-02-16T03:26:27;3.10;;;1.25;;
22230;SDS011;11284;48.086;-1.652;2024-02-16T03:28:53;3.25;;;1.20;;
22230;SDS011;11284;48.086;-1.652;2024-02-16T03:31:21;3.47;;;1.20;;
22230;SDS011;11284;48.086;-1.652;2024-02-16T03:33:48;3.90;;;1.13;;
22230;SDS011;11284;48.086;-1.652;2024-02-16T03:36:14;3.67;;;1.20;;
22230;SDS011;11284;48.086;-1.652;2024-02-16T03:38:44;5.47;;;1.55;;
22230;SDS011;11284;48.086;-1.652;2024-02-16T03:41:14;3.53;;;1.45;;
22230;SDS011;11284;48.086;-1.652;2024-02-16T03:43:41;4.15;;;1.30;;
22230;SDS011;11284;48.086;-1.652;2024-02-16T03:46:07;4.05;;;1.00;;
22230;SDS011;11284;48.086;-1.652;2024-02-16T03:48:35;4.07;;;1.15;;
22230;SDS011;11284;48.086;-1.652;2024-02-16T03:51:01;3.85;;;1.40;;
22230;SDS011;11284;48.086;-1.652;2024-02-16T03:53:28;3.17;;;1.05;;
22230;SDS011;11284;48.086;-1.652;2024-02-16T03:55:54;3.88;;;1.20;;
22230;SDS011;11284;48.086;-1.652;2024-02-16T03:58:21;4.38;;;1.02;;
22230;SDS011;11284;48.086;-1.652;2024-02-16T04:00:47;3.40;;;1.00;;
22230;SDS011;11284;48.086;-1.652;2024-02-16T04:03:17;4.15;;;0.98;;
22230;SDS011;11284;48.086;-1.652;2024-02-16T04:05:43;3.83;;;1.40;;
22230;SDS011;11284;48.086;-1.652;2024-02-16T04:08:09;3.22;;;0.80;;
22230;SDS011;11284;48.086;-1.652;2024-02-16T04:10:35;3.03;;;1.00;;
22230;SDS011;11284;48.086;-1.652;2024-02-16T04:13:02;3.45;;;1.10;;
22230;SDS011;11284;48.086;-1.652;2024-02-16T04:15:28;4.88;;;1.02;;
22230;SDS011;11284;48.086;-1.652;2024-02-16T04:17:54;3.67;;;1.17;;
22230;SDS011;11284;48.086;-1.652;2024-02-16T04:20:20;4.07;;;1.30;;
22230;SDS011;11284;48.086;-1.652;2024-02-16T04:22:46;4.72;;;1.25;;
22230;SDS011;11284;48.086;-1.652;2024-02-16T04:25:12;4.18;;;1.25;;
22230;SDS011;11284;48.086;-1.652;2024-02-16T04:27:38;5.10;;;1.33;;
22230;SDS011;11284;48.086;-1.652;2024-02-16T04:30:05;3.47;;;1.38;;
22230;SDS011;11284;48.086;-1.652;2024-02-16T04:32:31;4.13;;;1.35;;
22230;SDS011;11284;48.086;-1.652;2024-02-16T04:34:57;4.38;;;1.60;;
22230;SDS011;11284;48.086;-1.652;2024-02-16T04:37:24;4.28;;;1.67;;
22230;SDS011;11284;48.086;-1.652;2024-02-16T04:39:50;5.25;;;1.83;;
22230;SDS011;11284;48.086;-1.652;2024-02-16T04:42:16;4.88;;;1.60;;
22230;SDS011;11284;48.086;-1.652;2024-02-16T04:44:43;5.30;;;1.70;;
22230;SDS011;11284;48.086;-1.652;2024-02-16T04:47:09;4.45;;;1.45;;
22230;SDS011;11284;48.086;-1.652;2024-02-16T04:49:35;6.55;;;1.70;;
22230;SDS011;11284;48.086;-1.652;2024-02-16T04:52:02;3.88;;;1.52;;
22230;SDS011;11284;48.086;-1.652;2024-02-16T04:54:28;6.65;;;1.60;;
22230;SDS011;11284;48.086;-1.652;2024-02-16T04:56:54;4.43;;;1.60;;
22230;SDS011;11284;48.086;-1.652;2024-02-16T04:59:20;6.85;;;1.67;;
22230;SDS011;11284;48.086;-1.652;2024-02-16T05:01:46;5.10;;;1.52;;
22230;SDS011;11284;48.086;-1.652;2024-02-16T05:04:12;3.85;;;1.50;;
22230;SDS011;11284;48.086;-1.652;2024-02-16T05:06:42;6.28;;;1.40;;
22230;SDS011;11284;48.086;-1.652;2024-02-16T05:09:08;6.03;;;1.67;;
22230;SDS011;11284;48.086;-1.652;2024-02-16T05:11:34;3.63;;;1.60;;
22230;SDS011;11284;48.086;-1.652;2024-02-16T05:14:00;5.13;;;1.58;;
22230;SDS011;11284;48.086;-1.652;2024-02-16T05:16:27;3.97;;;1.70;;
22230;SDS011;11284;48.086;-1.652;2024-02-16T05:18:54;3.60;;;1.58;;
22230;SDS011;11284;48.086;-1.652;2024-02-16T05:21:23;4.00;;;1.42;;
22230;SDS011;11284;48.086;-1.652;2024-02-16T05:23:49;4.65;;;1.55;;
22230;SDS011;11284;48.086;-1.652;2024-02-16T05:26:15;4.97;;;1.50;;
22230;SDS011;11284;48.086;-1.652;2024-02-16T05:28:41;5.78;;;1.83;;
22230;SDS011;11284;48.086;-1.652;2024-02-16T05:31:14;5.55;;;2.03;;
22230;SDS011;11284;48.086;-1.652;2024-02-16T05:33:42;8.77;;;2.17;;
22230;SDS011;11284;48.086;-1.652;2024-02-16T05:36:08;10.27;;;1.92;;
22230;SDS011;11284;48.086;-1.652;2024-02-16T05:38:34;8.13;;;2.08;;
22230;SDS011;11284;48.086;-1.652;2024-02-16T05:41:06;8.30;;;1.75;;
22230;SDS011;11284;48.086;-1.652;2024-02-16T05:43:31;8.57;;;1.77;;
22230;SDS011;11284;48.086;-1.652;2024-02-16T05:45:58;8.77;;;2.50;;
22230;SDS011;11284;48.086;-1.652;2024-02-16T05:48:24;8.35;;;1.90;;
22230;SDS011;11284;48.086;-1.652;2024-02-16T05:50:56;7.35;;;1.60;;
22230;SDS011;11284;48.086;-1.652;2024-02-16T05:53:25;9.13;;;2.03;;
22230;SDS011;11284;48.086;-1.652;2024-02-16T05:55:51;10.32;;;1.90;;
22230;SDS011;11284;48.086;-1.652;2024-02-16T05:58:17;8.30;;;1.92;;
22230;SDS011;11284;48.086;-1.652;2024-02-16T06:00:43;11.65;;;1.80;;
22230;SDS011;11284;48.086;-1.652;2024-02-16T06:03:09;9.20;;;2.10;;
22230;SDS011;11284;48.086;-1.652;2024-02-16T06:05:35;12.25;;;2.03;;
22230;SDS011;11284;48.086;-1.652;2024-02-16T06:08:01;10.10;;;2.00;;
22230;SDS011;11284;48.086;-1.652;2024-02-16T06:10:27;9.70;;;2.25;;
22230;SDS011;11284;48.086;-1.652;2024-02-16T06:12:53;10.88;;;1.85;;
22230;SDS011;11284;48.086;-1.652;2024-02-16T06:15:19;11.63;;;1.95;;
22230;SDS011;11284;48.086;-1.652;2024-02-16T06:17:45;10.45;;;1.90;;
22230;SDS011;11284;48.086;-1.652;2024-02-16T06:20:11;11.00;;;1.90;;
22230;SDS011;11284;48.086;-1.652;2024-02-16T06:22:38;9.93;;;1.98;;
22230;SDS011;11284;48.086;-1.652;2024-02-16T06:25:04;9.23;;;1.67;;
22230;SDS011;11284;48.086;-1.652;2024-02-16T06:27:30;11.95;;;2.40;;
22230;SDS011;11284;48.086;-1.652;2024-02-16T06:29:57;9.02;;;2.15;;
22230;SDS011;11284;48.086;-1.652;2024-02-16T06:32:23;10.23;;;2.05;;
22230;SDS011;11284;48.086;-1.652;2024-02-16T06:34:49;9.57;;;2.00;;
22230;SDS011;11284;48.086;-1.652;2024-02-16T06:37:15;9.27;;;2.00;;
22230;SDS011;11284;48.086;-1.652;2024-02-16T06:39:41;14.45;;;2.15;;
22230;SDS011;11284;48.086;-1.652;2024-02-16T06:42:08;13.57;;;2.25;;
22230;SDS011;11284;48.086;-1.652;2024-02-16T06:44:37;9.27;;;1.50;;
22230;SDS011;11284;48.086;-1.652;2024-02-16T06:47:03;9.93;;;1.90;;
22230;SDS011;11284;48.086;-1.652;2024-02-16T06:49:29;9.27;;;1.92;;
22230;SDS011;11284;48.086;-1.652;2024-02-16T06:51:55;8.07;;;1.88;;
22230;SDS011;11284;48.086;-1.652;2024-02-16T06:54:21;10.60;;;1.90;;
22230;SDS011;11284;48.086;-1.652;2024-02-16T06:56:47;11.57;;;2.17;;
22230;SDS011;11284;48.086;-1.652;2024-02-16T06:59:15;12.02;;;1.95;;
22230;SDS011;11284;48.086;-1.652;2024-02-16T07:01:41;10.98;;;1.95;;
22230;SDS011;11284;48.086;-1.652;2024-02-16T07:04:07;11.07;;;1.98;;
22230;SDS011;11284;48.086;-1.652;2024-02-16T07:06:34;9.40;;;2.25;;
22230;SDS011;11284;48.086;-1.652;2024-02-16T07:09:00;11.88;;;2.20;;
22230;SDS011;11284;48.086;-1.652;2024-02-16T07:11:27;13.73;;;2.30;;
22230;SDS011;11284;48.086;-1.652;2024-02-16T07:13:53;12.05;;;2.05;;
22230;SDS011;11284;48.086;-1.652;2024-02-16T07:16:19;14.18;;;2.72;;
22230;SDS011;11284;48.086;-1.652;2024-02-16T07:18:45;10.85;;;2.35;;
22230;SDS011;11284;48.086;-1.652;2024-02-16T07:21:11;14.05;;;2.72;;
22230;SDS011;11284;48.086;-1.652;2024-02-16T07:23:38;15.55;;;2.05;;
22230;SDS011;11284;48.086;-1.652;2024-02-16T07:26:04;14.13;;;2.40;;
22230;SDS011;11284;48.086;-1.652;2024-02-16T07:28:30;13.02;;;2.90;;
22230;SDS011;11284;48.086;-1.652;2024-02-16T07:30:56;8.48;;;2.33;;
22230;SDS011;11284;48.086;-1.652;2024-02-16T07:33:22;13.80;;;2.00;;
22230;SDS011;11284;48.086;-1.652;2024-02-16T07:35:49;14.02;;;2.50;;
22230;SDS011;11284;48.086;-1.652;2024-02-16T07:38:17;14.93;;;2.75;;
22230;SDS011;11284;48.086;-1.652;2024-02-16T07:40:43;15.75;;;2.72;;
22230;SDS011;11284;48.086;-1.652;2024-02-16T07:43:10;14.38;;;2.78;;
22230;SDS011;11284;48.086;-1.652;2024-02-16T07:45:36;11.57;;;2.25;;
22230;SDS011;11284;48.086;-1.652;2024-02-16T07:48:02;11.95;;;1.98;;
22230;SDS011;11284;48.086;-1.652;2024-02-16T07:50:30;12.32;;;2.28;;
22230;SDS011;11284;48.086;-1.652;2024-02-16T07:52:57;12.40;;;2.72;;
22230;SDS011;11284;48.086;-1.652;2024-02-16T07:55:23;17.45;;;4.00;;
22230;SDS011;11284;48.086;-1.652;2024-02-16T07:57:49;15.43;;;3.53;;
22230;SDS011;11284;48.086;-1.652;2024-02-16T08:00:15;14.65;;;2.65;;
22230;SDS011;11284;48.086;-1.652;2024-02-16T08:02:42;15.48;;;2.60;;
22230;SDS011;11284;48.086;-1.652;2024-02-16T08:05:08;11.40;;;2.92;;
22230;SDS011;11284;48.086;-1.652;2024-02-16T08:07:34;14.50;;;2.53;;
22230;SDS011;11284;48.086;-1.652;2024-02-16T08:10:00;13.70;;;2.58;;
22230;SDS011;11284;48.086;-1.652;2024-02-16T08:12:27;13.30;;;5.50;;
22230;SDS011;11284;48.086;-1.652;2024-02-16T08:14:53;13.90;;;2.88;;
22230;SDS011;11284;48.086;-1.652;2024-02-16T08:17:19;17.05;;;3.67;;
22230;SDS011;11284;48.086;-1.652;2024-02-16T08:19:50;14.70;;;2.70;;
22230;SDS011;11284;48.086;-1.652;2024-02-16T08:22:16;14.30;;;2.88;;
22230;SDS011;11284;48.086;-1.652;2024-02-16T08:24:42;13.90;;;2.72;;
22230;SDS011;11284;48.086;-1.652;2024-02-16T08:27:11;14.13;;;2.90;;
22230;SDS011;11284;48.086;-1.652;2024-02-16T08:29:38;13.73;;;2.85;;
22230;SDS011;11284;48.086;-1.652;2024-02-16T08:32:04;13.77;;;2.22;;
22230;SDS011;11284;48.086;-1.652;2024-02-16T08:34:31;18.75;;;3.63;;
22230;SDS011;11284;48.086;-1.652;2024-02-16T08:36:57;15.60;;;4.45;;
22230;SDS011;11284;48.086;-1.652;2024-02-16T08:39:23;13.80;;;2.65;;
22230;SDS011;11284;48.086;-1.652;2024-02-16T08:41:50;12.25;;;2.97;;
22230;SDS011;11284;48.086;-1.652;2024-02-16T08:44:16;12.98;;;2.67;;
22230;SDS011;11284;48.086;-1.652;2024-02-16T08:46:44;17.75;;;3.42;;
22230;SDS011;11284;48.086;-1.652;2024-02-16T08:49:11;14.30;;;4.15;;
22230;SDS011;11284;48.086;-1.652;2024-02-16T08:51:37;20.08;;;3.13;;
22230;SDS011;11284;48.086;-1.652;2024-02-16T08:54:03;12.15;;;2.40;;
22230;SDS011;11284;48.086;-1.652;2024-02-16T08:56:29;13.73;;;2.70;;
22230;SDS011;11284;48.086;-1.652;2024-02-16T08:58:56;11.25;;;2.47;;
22230;SDS011;11284;48.086;-1.652;2024-02-16T09:03:57;13.23;;;3.63;;
22230;SDS011;11284;48.086;-1.652;2024-02-16T09:06:23;14.55;;;2.92;;
22230;SDS011;11284;48.086;-1.652;2024-02-16T09:08:50;13.90;;;3.55;;
22230;SDS011;11284;48.086;-1.652;2024-02-16T09:11:16;14.25;;;2.80;;
22230;SDS011;11284;48.086;-1.652;2024-02-16T09:13:42;13.93;;;3.63;;
22230;SDS011;11284;48.086;-1.652;2024-02-16T09:16:08;15.25;;;4.35;;
22230;SDS011;11284;48.086;-1.652;2024-02-16T09:18:34;13.32;;;3.13;;
22230;SDS011;11284;48.086;-1.652;2024-02-16T09:21:02;15.25;;;3.45;;
22230;SDS011;11284;48.086;-1.652;2024-02-16T09:23:29;12.10;;;2.55;;
22230;SDS011;11284;48.086;-1.652;2024-02-16T09:25:55;12.88;;;2.35;;
22230;SDS011;11284;48.086;-1.652;2024-02-16T09:28:21;12.00;;;2.72;;
22230;SDS011;11284;48.086;-1.652;2024-02-16T09:30:47;10.77;;;2.42;;
22230;SDS011;11284;48.086;-1.652;2024-02-16T09:33:13;11.27;;;3.25;;
22230;SDS011;11284;48.086;-1.652;2024-02-16T09:35:39;12.63;;;2.70;;
22230;SDS011;11284;48.086;-1.652;2024-02-16T09:38:05;16.70;;;3.92;;
22230;SDS011;11284;48.086;-1.652;2024-02-16T09:40:31;21.08;;;4.03;;
22230;SDS011;11284;48.086;-1.652;2024-02-16T09:42:57;15.98;;;5.47;;
22230;SDS011;11284;48.086;-1.652;2024-02-16T09:45:23;15.77;;;5.30;;
22230;SDS011;11284;48.086;-1.652;2024-02-16T09:47:51;19.05;;;3.75;;
22230;SDS011;11284;48.086;-1.652;2024-02-16T09:50:17;13.38;;;3.67;;
22230;SDS011;11284;48.086;-1.652;2024-02-16T09:52:46;14.05;;;2.40;;
22230;SDS011;11284;48.086;-1.652;2024-02-16T09:55:13;13.23;;;2.70;;
22230;SDS011;11284;48.086;-1.652;2024-02-16T09:57:40;8.32;;;2.20;;
22230;SDS011;11284;48.086;-1.652;2024-02-16T10:00:06;15.27;;;2.53;;
22230;SDS011;11284;48.086;-1.652;2024-02-16T10:02:47;11.77;;;3.00;;
22230;SDS011;11284;48.086;-1.652;2024-02-16T10:05:14;19.65;;;3.78;;
22230;SDS011;11284;48.086;-1.652;2024-02-16T10:07:41;16.60;;;6.07;;
22230;SDS011;11284;48.086;-1.652;2024-02-16T10:10:19;15.60;;;3.40;;
22230;SDS011;11284;48.086;-1.652;2024-02-16T10:12:46;17.08;;;6.00;;
22230;SDS011;11284;48.086;-1.652;2024-02-16T10:15:18;12.18;;;3.70;;
22230;SDS011;11284;48.086;-1.652;2024-02-16T10:17:44;19.13;;;7.13;;
22230;SDS011;11284;48.086;-1.652;2024-02-16T10:20:10;13.07;;;3.33;;
22230;SDS011;11284;48.086;-1.652;2024-02-16T10:22:36;13.35;;;2.40;;
22230;SDS011;11284;48.086;-1.652;2024-02-16T10:25:08;14.82;;;3.83;;
22230;SDS011;11284;48.086;-1.652;2024-02-16T10:27:36;13.48;;;3.55;;
22230;SDS011;11284;48.086;-1.652;2024-02-16T10:30:02;7.28;;;1.88;;
22230;SDS011;11284;48.086;-1.652;2024-02-16T10:32:35;9.93;;;2.22;;
22230;SDS011;11284;48.086;-1.652;2024-02-16T10:35:02;11.52;;;2.20;;
22230;SDS011;11284;48.086;-1.652;2024-02-16T10:37:29;8.02;;;1.50;;
22230;SDS011;11284;48.086;-1.652;2024-02-16T10:39:55;10.35;;;2.20;;
22230;SDS011;11284;48.086;-1.652;2024-02-16T10:42:23;13.23;;;3.50;;
22230;SDS011;11284;48.086;-1.652;2024-02-16T10:44:50;19.42;;;8.43;;
22230;SDS011;11284;48.086;-1.652;2024-02-16T10:47:17;13.88;;;3.90;;
22230;SDS011;11284;48.086;-1.652;2024-02-16T10:49:43;12.05;;;4.93;;
22230;SDS011;11284;48.086;-1.652;2024-02-16T10:52:09;12.15;;;3.67;;
22230;SDS011;11284;48.086;-1.652;2024-02-16T10:54:37;8.25;;;1.80;;
22230;SDS011;11284;48.086;-1.652;2024-02-16T10:57:07;13.70;;;3.45;;
22230;SDS011;11284;48.086;-1.652;2024-02-16T10:59:43;14.38;;;4.35;;
22230;SDS011;11284;48.086;-1.652;2024-02-16T11:02:11;11.27;;;2.65;;
22230;SDS011;11284;48.086;-1.652;2024-02-16T11:04:38;9.90;;;2.28;;
22230;SDS011;11284;48.086;-1.652;2024-02-16T11:07:11;11.73;;;3.42;;
22230;SDS011;11284;48.086;-1.652;2024-02-16T11:09:38;10.35;;;2.65;;
22230;SDS011;11284;48.086;-1.652;2024-02-16T11:12:05;12.20;;;4.13;;
22230;SDS011;11284;48.086;-1.652;2024-02-16T11:14:43;8.45;;;2.10;;
22230;SDS011;11284;48.086;-1.652;2024-02-16T11:19:35;10.07;;;1.98;;
22230;SDS011;11284;48.086;-1.652;2024-02-16T11:22:04;10.27;;;1.95;;
22230;SDS011;11284;48.086;-1.652;2024-02-16T11:24:37;10.75;;;2.28;;
22230;SDS011;11284;48.086;-1.652;2024-02-16T11:27:04;8.85;;;2.35;;
22230;SDS011;11284;48.086;-1.652;2024-02-16T11:29:36;10.60;;;2.00;;
22230;SDS011;11284;48.086;-1.652;2024-02-16T11:32:06;8.48;;;1.80;;
22230;SDS011;11284;48.086;-1.652;2024-02-16T11:34:32;7.38;;;1.80;;
22230;SDS011;11284;48.086;-1.652;2024-02-16T11:36:59;10.60;;;1.92;;
22230;SDS011;11284;48.086;-1.652;2024-02-16T11:39:26;12.05;;;2.30;;
22230;SDS011;11284;48.086;-1.652;2024-02-16T11:41:58;10.60;;;2.00;;
22230;SDS011;11284;48.086;-1.652;2024-02-16T11:44:26;10.50;;;1.38;;
22230;SDS011;11284;48.086;-1.652;2024-02-16T11:46:55;11.25;;;1.60;;
22230;SDS011;11284;48.086;-1.652;2024-02-16T11:49:21;7.00;;;1.42;;
22230;SDS011;11284;48.086;-1.652;2024-02-16T11:51:47;17.25;;;4.90;;
22230;SDS011;11284;48.086;-1.652;2024-02-16T11:54:13;11.88;;;3.78;;
22230;SDS011;11284;48.086;-1.652;2024-02-16T11:56:42;19.25;;;10.13;;
22230;SDS011;11284;48.086;-1.652;2024-02-16T11:59:10;14.35;;;7.88;;
22230;SDS011;11284;48.086;-1.652;2024-02-16T12:01:39;14.18;;;4.18;;
22230;SDS011;11284;48.086;-1.652;2024-02-16T12:04:19;7.00;;;2.05;;
22230;SDS011;11284;48.086;-1.652;2024-02-16T12:06:45;9.90;;;2.00;;
22230;SDS011;11284;48.086;-1.652;2024-02-16T12:09:14;10.13;;;1.95;;
22230;SDS011;11284;48.086;-1.652;2024-02-16T12:11:41;8.95;;;2.20;;
22230;SDS011;11284;48.086;-1.652;2024-02-16T12:14:07;8.45;;;2.00;;
22230;SDS011;11284;48.086;-1.652;2024-02-16T12:16:33;8.75;;;1.73;;
22230;SDS011;11284;48.086;-1.652;2024-02-16T12:19:05;6.75;;;1.50;;
22230;SDS011;11284;48.086;-1.652;2024-02-16T12:21:32;7.70;;;1.70;;
22230;SDS011;11284;48.086;-1.652;2024-02-16T12:23:58;9.15;;;1.60;;
22230;SDS011;11284;48.086;-1.652;2024-02-16T12:26:24;7.97;;;2.80;;
22230;SDS011;11284;48.086;-1.652;2024-02-16T12:28:50;10.38;;;5.03;;
22230;SDS011;11284;48.086;-1.652;2024-02-16T12:31:20;11.50;;;3.63;;
22230;SDS011;11284;48.086;-1.652;2024-02-16T12:33:46;16.38;;;8.52;;
22230;SDS011;11284;48.086;-1.652;2024-02-16T12:36:12;5.57;;;1.65;;
22230;SDS011;11284;48.086;-1.652;2024-02-16T12:38:39;7.40;;;1.90;;
22230;SDS011;11284;48.086;-1.652;2024-02-16T12:41:05;6.30;;;2.15;;
22230;SDS011;11284;48.086;-1.652;2024-02-16T12:43:31;5.22;;;1.10;;
22230;SDS011;11284;48.086;-1.652;2024-02-16T12:45:57;5.53;;;1.13;;
22230;SDS011;11284;48.086;-1.652;2024-02-16T12:48:27;7.10;;;1.13;;
22230;SDS011;11284;48.086;-1.652;2024-02-16T12:50:53;4.65;;;0.70;;
22230;SDS011;11284;48.086;-1.652;2024-02-16T12:53:19;5.40;;;1.30;;
22230;SDS011;11284;48.086;-1.652;2024-02-16T12:55:46;19.58;;;11.63;;
22230;SDS011;11284;48.086;-1.652;2024-02-16T12:58:12;10.15;;;4.28;;
22230;SDS011;11284;48.086;-1.652;2024-02-16T13:00:38;13.52;;;7.35;;
22230;SDS011;11284;48.086;-1.652;2024-02-16T13:03:04;15.75;;;8.38;;
22230;SDS011;11284;48.086;-1.652;2024-02-16T13:05:30;7.10;;;1.63;;
22230;SDS011;11284;48.086;-1.652;2024-02-16T13:07:58;12.18;;;3.42;;
22230;SDS011;11284;48.086;-1.652;2024-02-16T13:10:24;10.30;;;3.10;;
22230;SDS011;11284;48.086;-1.652;2024-02-16T13:12:50;9.07;;;1.55;;
22230;SDS011;11284;48.086;-1.652;2024-02-16T13:15:16;6.25;;;1.60;;
22230;SDS011;11284;48.086;-1.652;2024-02-16T13:17:42;6.72;;;1.58;;
22230;SDS011;11284;48.086;-1.652;2024-02-16T13:20:08;6.93;;;1.40;;
22230;SDS011;11284;48.086;-1.652;2024-02-16T13:22:37;9.30;;;1.80;;
22230;SDS011;11284;48.086;-1.652;2024-02-16T13:25:06;9.95;;;1.83;;
22230;SDS011;11284;48.086;-1.652;2024-02-16T13:27:32;9.10;;;1.77;;
22230;SDS011;11284;48.086;-1.652;2024-02-16T13:29:59;9.48;;;1.33;;
22230;SDS011;11284;48.086;-1.652;2024-02-16T13:32:25;8.55;;;4.13;;
22230;SDS011;11284;48.086;-1.652;2024-02-16T13:34:51;14.45;;;3.83;;
22230;SDS011;11284;48.086;-1.652;2024-02-16T13:37:17;9.10;;;2.83;;
22230;SDS011;11284;48.086;-1.652;2024-02-16T13:39:43;10.43;;;3.40;;
22230;SDS011;11284;48.086;-1.652;2024-02-16T13:42:10;8.88;;;2.92;;
22230;SDS011;11284;48.086;-1.652;2024-02-16T13:44:37;8.52;;;2.55;;
22230;SDS011;11284;48.086;-1.652;2024-02-16T13:47:03;11.25;;;3.08;;
22230;SDS011;11284;48.086;-1.652;2024-02-16T13:49:29;11.23;;;3.60;;
22230;SDS011;11284;48.086;-1.652;2024-02-16T13:51:55;20.27;;;10.52;;
22230;SDS011;11284;48.086;-1.652;2024-02-16T13:54:24;9.32;;;1.58;;
22230;SDS011;11284;48.086;-1.652;2024-02-16T13:56:50;9.75;;;3.13;;
22230;SDS011;11284;48.086;-1.652;2024-02-16T13:59:16;10.20;;;3.72;;
22230;SDS011;11284;48.086;-1.652;2024-02-16T14:01:42;8.52;;;2.40;;
22230;SDS011;11284;48.086;-1.652;2024-02-16T14:04:08;30.33;;;18.88;;
22230;SDS011;11284;48.086;-1.652;2024-02-16T14:06:34;10.18;;;3.05;;
22230;SDS011;11284;48.086;-1.652;2024-02-16T14:09:00;13.25;;;2.28;;
22230;SDS011;11284;48.086;-1.652;2024-02-16T14:11:33;7.03;;;1.30;;
22230;SDS011;11284;48.086;-1.652;2024-02-16T14:13:59;26.25;;;13.15;;
22230;SDS011;11284;48.086;-1.652;2024-02-16T14:16:25;11.02;;;2.53;;
22230;SDS011;11284;48.086;-1.652;2024-02-16T14:18:51;10.90;;;2.83;;
22230;SDS011;11284;48.086;-1.652;2024-02-16T14:21:17;9.52;;;1.90;;
22230;SDS011;11284;48.086;-1.652;2024-02-16T14:23:43;9.35;;;1.98;;
22230;SDS011;11284;48.086;-1.652;2024-02-16T14:26:09;8.18;;;2.53;;
22230;SDS011;11284;48.086;-1.652;2024-02-16T14:28:36;7.72;;;2.10;;